sensor_id;sensor_type;location;lat;lon;timestamp;temperature;humidity
5059;DHT22;2548;52.050;11.036;2023-07-02T00:01:23;17.40;99.90
5059;DHT22;2548;52.050;11.036;2023-07-02T00:04:03;17.30;99.90
5059;DHT22;2548;52.050;11.036;2023-07-02T00:06:33;17.30;99.90
5059;DHT22;2548;52.050;11.036;2023-07-02T00:09:06;17.30;99.90
5059;DHT22;2548;52.050;11.036;2023-07-02T00:11:35;17.30;99.90
5059;DHT22;2548;52.050;11.036;2023-07-02T00:14:04;17.20;99.90
5059;DHT22;2548;52.050;11.036;2023-07-02T00:16:35;17.20;99.90
5059;DHT22;2548;52.050;11.036;2023-07-02T00:19:06;17.20;99.90
5059;DHT22;2548;52.050;11.036;2023-07-02T00:21:33;17.20;99.90
5059;DHT22;2548;52.050;11.036;2023-07-02T00:24:04;17.20;99.90
5059;DHT22;2548;52.050;11.036;2023-07-02T00:26:34;17.20;99.90
5059;DHT22;2548;52.050;11.036;2023-07-02T00:29:06;17.20;99.90
5059;DHT22;2548;52.050;11.036;2023-07-02T00:31:34;17.20;99.90
5059;DHT22;2548;52.050;11.036;2023-07-02T00:34:08;17.20;99.90
5059;DHT22;2548;52.050;11.036;2023-07-02T00:36:38;17.10;99.90
5059;DHT22;2548;52.050;11.036;2023-07-02T00:39:07;17.10;99.90
5059;DHT22;2548;52.050;11.036;2023-07-02T00:41:35;17.10;99.90
5059;DHT22;2548;52.050;11.036;2023-07-02T00:44:07;17.10;99.90
5059;DHT22;2548;52.050;11.036;2023-07-02T00:46:36;17.00;99.90
5059;DHT22;2548;52.050;11.036;2023-07-02T00:49:18;17.00;99.90
5059;DHT22;2548;52.050;11.036;2023-07-02T00:51:47;17.00;99.90
5059;DHT22;2548;52.050;11.036;2023-07-02T00:54:15;17.00;99.90
5059;DHT22;2548;52.050;11.036;2023-07-02T00:56:42;17.00;99.90
5059;DHT22;2548;52.050;11.036;2023-07-02T00:59:19;17.00;99.90
5059;DHT22;2548;52.050;11.036;2023-07-02T01:01:50;17.00;99.90
5059;DHT22;2548;52.050;11.036;2023-07-02T01:04:19;16.90;99.90
5059;DHT22;2548;52.050;11.036;2023-07-02T01:06:53;16.90;99.90
5059;DHT22;2548;52.050;11.036;2023-07-02T01:09:30;16.90;99.90
5059;DHT22;2548;52.050;11.036;2023-07-02T01:12:02;16.90;99.90
5059;DHT22;2548;52.050;11.036;2023-07-02T01:14:34;16.80;99.90
5059;DHT22;2548;52.050;11.036;2023-07-02T01:17:04;16.90;99.90
5059;DHT22;2548;52.050;11.036;2023-07-02T01:19:41;16.90;99.90
5059;DHT22;2548;52.050;11.036;2023-07-02T01:22:09;16.90;99.90
5059;DHT22;2548;52.050;11.036;2023-07-02T01:24:39;16.90;99.90
5059;DHT22;2548;52.050;11.036;2023-07-02T01:27:06;16.90;99.90
5059;DHT22;2548;52.050;11.036;2023-07-02T01:29:36;16.90;99.90
5059;DHT22;2548;52.050;11.036;2023-07-02T01:32:04;16.90;99.90
5059;DHT22;2548;52.050;11.036;2023-07-02T01:34:44;16.90;99.90
5059;DHT22;2548;52.050;11.036;2023-07-02T01:37:18;16.90;99.90
5059;DHT22;2548;52.050;11.036;2023-07-02T01:39:46;17.00;99.90
5059;DHT22;2548;52.050;11.036;2023-07-02T01:42:14;17.00;99.90
5059;DHT22;2548;52.050;11.036;2023-07-02T01:44:43;16.90;99.90
5059;DHT22;2548;52.050;11.036;2023-07-02T01:47:16;16.90;99.90
5059;DHT22;2548;52.050;11.036;2023-07-02T01:49:50;16.90;99.90
5059;DHT22;2548;52.050;11.036;2023-07-02T01:52:22;16.90;99.90
5059;DHT22;2548;52.050;11.036;2023-07-02T01:54:56;16.80;99.90
5059;DHT22;2548;52.050;11.036;2023-07-02T01:57:28;16.80;99.90
5059;DHT22;2548;52.050;11.036;2023-07-02T01:59:56;16.80;99.90
5059;DHT22;2548;52.050;11.036;2023-07-02T02:02:31;16.80;99.90
5059;DHT22;2548;52.050;11.036;2023-07-02T02:05:03;16.70;99.90
5059;DHT22;2548;52.050;11.036;2023-07-02T02:07:33;16.70;99.90
5059;DHT22;2548;52.050;11.036;2023-07-02T02:10:01;16.70;99.90
5059;DHT22;2548;52.050;11.036;2023-07-02T02:12:29;16.70;99.90
5059;DHT22;2548;52.050;11.036;2023-07-02T02:15:03;16.60;99.90
5059;DHT22;2548;52.050;11.036;2023-07-02T02:17:35;16.60;99.90
5059;DHT22;2548;52.050;11.036;2023-07-02T02:20:05;16.60;99.90
5059;DHT22;2548;52.050;11.036;2023-07-02T02:22:34;16.60;99.90
5059;DHT22;2548;52.050;11.036;2023-07-02T02:25:02;16.60;99.90
5059;DHT22;2548;52.050;11.036;2023-07-02T02:27:38;16.50;99.90
5059;DHT22;2548;52.050;11.036;2023-07-02T02:30:07;16.50;99.90
5059;DHT22;2548;52.050;11.036;2023-07-02T02:32:35;16.40;99.90
5059;DHT22;2548;52.050;11.036;2023-07-02T02:35:06;16.40;99.90
5059;DHT22;2548;52.050;11.036;2023-07-02T02:37:35;16.40;99.90
5059;DHT22;2548;52.050;11.036;2023-07-02T02:40:04;16.30;99.90
5059;DHT22;2548;52.050;11.036;2023-07-02T02:42:35;16.20;99.90
5059;DHT22;2548;52.050;11.036;2023-07-02T02:45:07;16.20;99.90
5059;DHT22;2548;52.050;11.036;2023-07-02T02:47:35;16.10;99.90
5059;DHT22;2548;52.050;11.036;2023-07-02T02:50:05;16.10;99.90
5059;DHT22;2548;52.050;11.036;2023-07-02T02:52:32;16.00;99.90
5059;DHT22;2548;52.050;11.036;2023-07-02T02:55:00;16.00;99.90
5059;DHT22;2548;52.050;11.036;2023-07-02T02:57:27;15.90;99.90
5059;DHT22;2548;52.050;11.036;2023-07-02T02:59:55;15.80;99.90
5059;DHT22;2548;52.050;11.036;2023-07-02T03:02:22;15.70;99.90
5059;DHT22;2548;52.050;11.036;2023-07-02T03:04:50;15.70;99.90
5059;DHT22;2548;52.050;11.036;2023-07-02T03:07:21;15.60;99.90
5059;DHT22;2548;52.050;11.036;2023-07-02T03:09:49;15.60;99.90
5059;DHT22;2548;52.050;11.036;2023-07-02T03:12:16;15.50;99.90
5059;DHT22;2548;52.050;11.036;2023-07-02T03:14:43;15.40;99.90
5059;DHT22;2548;52.050;11.036;2023-07-02T03:17:12;15.40;99.90
5059;DHT22;2548;52.050;11.036;2023-07-02T03:19:40;15.30;99.90
5059;DHT22;2548;52.050;11.036;2023-07-02T03:22:10;15.30;99.90
5059;DHT22;2548;52.050;11.036;2023-07-02T03:24:39;15.30;99.90
5059;DHT22;2548;52.050;11.036;2023-07-02T03:27:07;15.20;99.90
5059;DHT22;2548;52.050;11.036;2023-07-02T03:29:34;15.20;99.90
5059;DHT22;2548;52.050;11.036;2023-07-02T03:32:04;15.10;99.90
5059;DHT22;2548;52.050;11.036;2023-07-02T03:34:34;15.10;99.90
5059;DHT22;2548;52.050;11.036;2023-07-02T03:37:04;15.10;99.90
5059;DHT22;2548;52.050;11.036;2023-07-02T03:39:36;15.10;99.90
5059;DHT22;2548;52.050;11.036;2023-07-02T03:42:06;15.10;99.90
5059;DHT22;2548;52.050;11.036;2023-07-02T03:44:33;15.00;99.90
5059;DHT22;2548;52.050;11.036;2023-07-02T03:47:15;15.00;99.90
5059;DHT22;2548;52.050;11.036;2023-07-02T03:49:45;15.00;99.90
5059;DHT22;2548;52.050;11.036;2023-07-02T03:52:13;15.10;99.90
5059;DHT22;2548;52.050;11.036;2023-07-02T03:54:40;15.10;99.90
5059;DHT22;2548;52.050;11.036;2023-07-02T03:57:11;15.10;99.90
5059;DHT22;2548;52.050;11.036;2023-07-02T03:59:42;15.10;99.90
5059;DHT22;2548;52.050;11.036;2023-07-02T04:02:13;15.10;99.90
5059;DHT22;2548;52.050;11.036;2023-07-02T04:04:40;15.20;99.90
5059;DHT22;2548;52.050;11.036;2023-07-02T04:07:14;15.20;99.90
5059;DHT22;2548;52.050;11.036;2023-07-02T04:09:42;15.30;99.90
5059;DHT22;2548;52.050;11.036;2023-07-02T04:12:11;15.40;99.90
5059;DHT22;2548;52.050;11.036;2023-07-02T04:14:41;15.40;99.90
5059;DHT22;2548;52.050;11.036;2023-07-02T04:17:09;15.50;99.90
5059;DHT22;2548;52.050;11.036;2023-07-02T04:19:37;15.50;99.90
5059;DHT22;2548;52.050;11.036;2023-07-02T04:22:05;15.50;99.90
5059;DHT22;2548;52.050;11.036;2023-07-02T04:24:33;15.60;99.90
5059;DHT22;2548;52.050;11.036;2023-07-02T04:27:04;15.60;99.90
5059;DHT22;2548;52.050;11.036;2023-07-02T04:29:33;15.60;99.90
5059;DHT22;2548;52.050;11.036;2023-07-02T04:32:11;15.60;99.90
5059;DHT22;2548;52.050;11.036;2023-07-02T04:34:42;15.70;99.90
5059;DHT22;2548;52.050;11.036;2023-07-02T04:37:10;15.70;99.90
5059;DHT22;2548;52.050;11.036;2023-07-02T04:39:40;15.80;99.90
5059;DHT22;2548;52.050;11.036;2023-07-02T04:42:13;15.80;99.90
5059;DHT22;2548;52.050;11.036;2023-07-02T04:44:42;15.90;99.90
5059;DHT22;2548;52.050;11.036;2023-07-02T04:47:11;15.90;99.90
5059;DHT22;2548;52.050;11.036;2023-07-02T04:49:42;15.90;99.90
5059;DHT22;2548;52.050;11.036;2023-07-02T04:52:12;15.90;99.90
5059;DHT22;2548;52.050;11.036;2023-07-02T04:54:42;15.90;99.90
5059;DHT22;2548;52.050;11.036;2023-07-02T04:57:12;15.90;99.90
5059;DHT22;2548;52.050;11.036;2023-07-02T04:59:43;16.00;99.90
5059;DHT22;2548;52.050;11.036;2023-07-02T05:02:21;16.10;99.90
5059;DHT22;2548;52.050;11.036;2023-07-02T05:04:49;16.20;99.90
5059;DHT22;2548;52.050;11.036;2023-07-02T05:07:17;16.30;99.90
5059;DHT22;2548;52.050;11.036;2023-07-02T05:09:44;16.40;99.90
5059;DHT22;2548;52.050;11.036;2023-07-02T05:12:12;16.50;99.90
5059;DHT22;2548;52.050;11.036;2023-07-02T05:14:41;16.50;99.90
5059;DHT22;2548;52.050;11.036;2023-07-02T05:17:11;16.50;99.90
5059;DHT22;2548;52.050;11.036;2023-07-02T05:19:40;16.60;99.90
5059;DHT22;2548;52.050;11.036;2023-07-02T05:22:09;16.60;99.90
5059;DHT22;2548;52.050;11.036;2023-07-02T05:24:36;16.70;99.90
5059;DHT22;2548;52.050;11.036;2023-07-02T05:27:07;16.70;99.90
5059;DHT22;2548;52.050;11.036;2023-07-02T05:29:35;16.80;99.90
5059;DHT22;2548;52.050;11.036;2023-07-02T05:32:07;16.80;99.90
5059;DHT22;2548;52.050;11.036;2023-07-02T05:34:40;16.90;99.90
5059;DHT22;2548;52.050;11.036;2023-07-02T05:37:08;16.90;99.90
5059;DHT22;2548;52.050;11.036;2023-07-02T05:39:35;16.90;99.90
5059;DHT22;2548;52.050;11.036;2023-07-02T05:42:06;16.90;99.90
5059;DHT22;2548;52.050;11.036;2023-07-02T05:44:34;16.90;99.90
5059;DHT22;2548;52.050;11.036;2023-07-02T05:47:06;17.00;99.90
5059;DHT22;2548;52.050;11.036;2023-07-02T05:49:33;17.00;99.90
5059;DHT22;2548;52.050;11.036;2023-07-02T05:52:01;17.00;99.90
5059;DHT22;2548;52.050;11.036;2023-07-02T05:54:29;17.10;99.90
5059;DHT22;2548;52.050;11.036;2023-07-02T05:56:59;17.10;99.90
5059;DHT22;2548;52.050;11.036;2023-07-02T05:59:27;17.10;99.90
5059;DHT22;2548;52.050;11.036;2023-07-02T06:01:54;17.10;99.90
5059;DHT22;2548;52.050;11.036;2023-07-02T06:04:23;17.10;99.90
5059;DHT22;2548;52.050;11.036;2023-07-02T06:06:51;17.10;99.90
5059;DHT22;2548;52.050;11.036;2023-07-02T06:09:19;17.10;99.90
5059;DHT22;2548;52.050;11.036;2023-07-02T06:11:46;17.10;99.90
5059;DHT22;2548;52.050;11.036;2023-07-02T06:14:14;17.10;99.90
5059;DHT22;2548;52.050;11.036;2023-07-02T06:16:42;17.00;99.90
5059;DHT22;2548;52.050;11.036;2023-07-02T06:19:09;17.00;99.90
5059;DHT22;2548;52.050;11.036;2023-07-02T06:21:38;17.10;99.90
5059;DHT22;2548;52.050;11.036;2023-07-02T06:24:06;17.10;99.90
5059;DHT22;2548;52.050;11.036;2023-07-02T06:26:34;17.10;99.90
5059;DHT22;2548;52.050;11.036;2023-07-02T06:29:01;17.10;99.90
5059;DHT22;2548;52.050;11.036;2023-07-02T06:31:29;17.10;99.90
5059;DHT22;2548;52.050;11.036;2023-07-02T06:33:57;17.00;99.90
5059;DHT22;2548;52.050;11.036;2023-07-02T06:36:24;17.00;99.90
5059;DHT22;2548;52.050;11.036;2023-07-02T06:38:59;16.90;99.90
5059;DHT22;2548;52.050;11.036;2023-07-02T06:41:27;16.80;99.90
5059;DHT22;2548;52.050;11.036;2023-07-02T06:43:55;16.70;99.90
5059;DHT22;2548;52.050;11.036;2023-07-02T06:46:23;16.60;99.90
5059;DHT22;2548;52.050;11.036;2023-07-02T06:48:58;16.50;99.90
5059;DHT22;2548;52.050;11.036;2023-07-02T06:51:25;16.40;99.90
5059;DHT22;2548;52.050;11.036;2023-07-02T06:53:55;16.30;99.90
5059;DHT22;2548;52.050;11.036;2023-07-02T06:56:24;16.30;99.90
5059;DHT22;2548;52.050;11.036;2023-07-02T06:58:55;16.30;99.90
5059;DHT22;2548;52.050;11.036;2023-07-02T07:01:22;16.20;99.90
5059;DHT22;2548;52.050;11.036;2023-07-02T07:03:50;16.20;99.90
5059;DHT22;2548;52.050;11.036;2023-07-02T07:06:18;16.10;99.90
5059;DHT22;2548;52.050;11.036;2023-07-02T07:08:46;16.10;99.90
5059;DHT22;2548;52.050;11.036;2023-07-02T07:11:14;16.10;99.90
5059;DHT22;2548;52.050;11.036;2023-07-02T07:13:46;16.00;99.90
5059;DHT22;2548;52.050;11.036;2023-07-02T07:16:13;16.00;99.90
5059;DHT22;2548;52.050;11.036;2023-07-02T07:18:43;16.00;99.90
5059;DHT22;2548;52.050;11.036;2023-07-02T07:21:13;16.00;99.90
5059;DHT22;2548;52.050;11.036;2023-07-02T07:23:41;16.00;99.90
5059;DHT22;2548;52.050;11.036;2023-07-02T07:26:09;16.10;99.90
5059;DHT22;2548;52.050;11.036;2023-07-02T07:28:37;16.10;99.90
5059;DHT22;2548;52.050;11.036;2023-07-02T07:31:06;16.30;99.90
5059;DHT22;2548;52.050;11.036;2023-07-02T07:33:34;16.30;99.90
5059;DHT22;2548;52.050;11.036;2023-07-02T07:36:01;16.40;99.90
5059;DHT22;2548;52.050;11.036;2023-07-02T07:38:38;16.60;99.90
5059;DHT22;2548;52.050;11.036;2023-07-02T07:41:05;16.70;99.90
5059;DHT22;2548;52.050;11.036;2023-07-02T07:43:41;16.80;99.90
5059;DHT22;2548;52.050;11.036;2023-07-02T07:46:10;16.80;99.90
5059;DHT22;2548;52.050;11.036;2023-07-02T07:48:48;16.80;99.90
5059;DHT22;2548;52.050;11.036;2023-07-02T07:51:16;16.90;99.90
5059;DHT22;2548;52.050;11.036;2023-07-02T07:53:43;17.00;99.90
5059;DHT22;2548;52.050;11.036;2023-07-02T07:56:11;17.20;99.90
5059;DHT22;2548;52.050;11.036;2023-07-02T07:58:39;17.40;99.90
5059;DHT22;2548;52.050;11.036;2023-07-02T08:01:13;17.50;99.90
5059;DHT22;2548;52.050;11.036;2023-07-02T08:03:41;17.80;99.90
5059;DHT22;2548;52.050;11.036;2023-07-02T08:06:09;18.00;99.90
5059;DHT22;2548;52.050;11.036;2023-07-02T08:08:36;18.20;99.90
5059;DHT22;2548;52.050;11.036;2023-07-02T08:11:10;18.30;99.90
5059;DHT22;2548;52.050;11.036;2023-07-02T08:13:38;18.40;99.90
5059;DHT22;2548;52.050;11.036;2023-07-02T08:16:05;18.50;99.90
5059;DHT22;2548;52.050;11.036;2023-07-02T08:18:39;18.60;99.90
5059;DHT22;2548;52.050;11.036;2023-07-02T08:21:10;18.70;99.90
5059;DHT22;2548;52.050;11.036;2023-07-02T08:23:37;18.80;99.90
5059;DHT22;2548;52.050;11.036;2023-07-02T08:26:05;18.80;99.90
5059;DHT22;2548;52.050;11.036;2023-07-02T08:28:36;18.90;99.90
5059;DHT22;2548;52.050;11.036;2023-07-02T08:31:04;19.00;99.90
5059;DHT22;2548;52.050;11.036;2023-07-02T08:33:40;19.00;99.90
5059;DHT22;2548;52.050;11.036;2023-07-02T08:36:07;18.90;99.90
5059;DHT22;2548;52.050;11.036;2023-07-02T08:38:39;18.60;99.90
5059;DHT22;2548;52.050;11.036;2023-07-02T08:41:09;18.40;99.90
5059;DHT22;2548;52.050;11.036;2023-07-02T08:43:37;18.30;99.90
5059;DHT22;2548;52.050;11.036;2023-07-02T08:46:08;18.20;99.90
5059;DHT22;2548;52.050;11.036;2023-07-02T08:48:37;18.00;99.90
5059;DHT22;2548;52.050;11.036;2023-07-02T08:51:06;18.00;99.90
5059;DHT22;2548;52.050;11.036;2023-07-02T08:53:35;18.00;99.90
5059;DHT22;2548;52.050;11.036;2023-07-02T08:56:03;18.00;99.90
5059;DHT22;2548;52.050;11.036;2023-07-02T08:58:31;18.00;99.90
5059;DHT22;2548;52.050;11.036;2023-07-02T09:01:20;18.00;99.90
5059;DHT22;2548;52.050;11.036;2023-07-02T09:03:50;18.00;99.90
5059;DHT22;2548;52.050;11.036;2023-07-02T09:06:19;18.00;99.90
5059;DHT22;2548;52.050;11.036;2023-07-02T09:09:06;18.20;99.90
5059;DHT22;2548;52.050;11.036;2023-07-02T09:11:34;18.30;99.90
5059;DHT22;2548;52.050;11.036;2023-07-02T09:14:24;18.50;99.90
5059;DHT22;2548;52.050;11.036;2023-07-02T09:17:03;18.50;99.90
5059;DHT22;2548;52.050;11.036;2023-07-02T09:19:31;18.40;99.90
5059;DHT22;2548;52.050;11.036;2023-07-02T09:22:01;18.40;99.90
5059;DHT22;2548;52.050;11.036;2023-07-02T09:24:31;18.30;99.90
5059;DHT22;2548;52.050;11.036;2023-07-02T09:27:01;18.40;99.90
5059;DHT22;2548;52.050;11.036;2023-07-02T09:29:30;18.40;99.90
5059;DHT22;2548;52.050;11.036;2023-07-02T09:31:59;18.50;99.90
5059;DHT22;2548;52.050;11.036;2023-07-02T09:34:28;18.50;99.90
5059;DHT22;2548;52.050;11.036;2023-07-02T09:37:03;18.60;99.90
5059;DHT22;2548;52.050;11.036;2023-07-02T09:39:33;18.50;99.90
5059;DHT22;2548;52.050;11.036;2023-07-02T09:42:06;18.60;99.90
5059;DHT22;2548;52.050;11.036;2023-07-02T09:44:34;18.50;99.90
5059;DHT22;2548;52.050;11.036;2023-07-02T09:47:03;18.50;99.90
5059;DHT22;2548;52.050;11.036;2023-07-02T09:49:33;18.50;99.90
5059;DHT22;2548;52.050;11.036;2023-07-02T09:52:01;18.50;99.90
5059;DHT22;2548;52.050;11.036;2023-07-02T09:54:38;18.40;99.90
5059;DHT22;2548;52.050;11.036;2023-07-02T09:57:06;18.40;99.90
5059;DHT22;2548;52.050;11.036;2023-07-02T09:59:34;18.40;99.90
5059;DHT22;2548;52.050;11.036;2023-07-02T10:02:12;18.40;99.90
5059;DHT22;2548;52.050;11.036;2023-07-02T10:07:43;18.80;99.90
5059;DHT22;2548;52.050;11.036;2023-07-02T10:10:12;18.90;99.90
5059;DHT22;2548;52.050;11.036;2023-07-02T10:12:47;18.90;99.90
5059;DHT22;2548;52.050;11.036;2023-07-02T10:15:24;19.00;99.90
5059;DHT22;2548;52.050;11.036;2023-07-02T10:18:04;19.20;99.90
5059;DHT22;2548;52.050;11.036;2023-07-02T10:20:33;19.30;99.90
5059;DHT22;2548;52.050;11.036;2023-07-02T10:23:02;19.60;99.90
5059;DHT22;2548;52.050;11.036;2023-07-02T10:25:39;20.00;99.90
5059;DHT22;2548;52.050;11.036;2023-07-02T10:28:19;20.40;99.90
5059;DHT22;2548;52.050;11.036;2023-07-02T10:30:50;20.70;99.90
5059;DHT22;2548;52.050;11.036;2023-07-02T10:33:23;20.90;99.90
5059;DHT22;2548;52.050;11.036;2023-07-02T10:35:52;20.80;99.90
5059;DHT22;2548;52.050;11.036;2023-07-02T10:38:24;20.40;99.90
5059;DHT22;2548;52.050;11.036;2023-07-02T10:41:02;20.20;99.90
5059;DHT22;2548;52.050;11.036;2023-07-02T10:43:33;19.90;99.90
5059;DHT22;2548;52.050;11.036;2023-07-02T10:46:02;20.00;99.90
5059;DHT22;2548;52.050;11.036;2023-07-02T10:52:27;20.60;99.90
5059;DHT22;2548;52.050;11.036;2023-07-02T10:55:22;20.90;99.90
5059;DHT22;2548;52.050;11.036;2023-07-02T10:58:41;21.10;99.90
5059;DHT22;2548;52.050;11.036;2023-07-02T11:01:33;21.00;99.90
5059;DHT22;2548;52.050;11.036;2023-07-02T11:04:35;21.00;99.90
5059;DHT22;2548;52.050;11.036;2023-07-02T11:08:05;20.70;99.90
5059;DHT22;2548;52.050;11.036;2023-07-02T11:10:45;20.60;99.90
5059;DHT22;2548;52.050;11.036;2023-07-02T11:13:14;20.40;99.90
5059;DHT22;2548;52.050;11.036;2023-07-02T11:15:44;20.40;99.90
5059;DHT22;2548;52.050;11.036;2023-07-02T11:18:14;20.60;99.90
5059;DHT22;2548;52.050;11.036;2023-07-02T11:20:43;20.90;99.90
5059;DHT22;2548;52.050;11.036;2023-07-02T11:23:20;21.00;99.90
5059;DHT22;2548;52.050;11.036;2023-07-02T11:25:56;20.90;99.90
5059;DHT22;2548;52.050;11.036;2023-07-02T11:28:25;20.80;99.90
5059;DHT22;2548;52.050;11.036;2023-07-02T11:30:55;20.70;99.90
5059;DHT22;2548;52.050;11.036;2023-07-02T11:33:34;20.80;99.90
5059;DHT22;2548;52.050;11.036;2023-07-02T11:36:19;20.90;99.90
5059;DHT22;2548;52.050;11.036;2023-07-02T11:38:50;20.80;99.90
5059;DHT22;2548;52.050;11.036;2023-07-02T11:41:19;20.80;99.90
5059;DHT22;2548;52.050;11.036;2023-07-02T11:43:52;20.70;99.90
5059;DHT22;2548;52.050;11.036;2023-07-02T11:46:22;21.00;99.90
5059;DHT22;2548;52.050;11.036;2023-07-02T11:48:50;21.30;99.90
5059;DHT22;2548;52.050;11.036;2023-07-02T11:51:19;21.40;99.90
5059;DHT22;2548;52.050;11.036;2023-07-02T11:53:46;21.60;99.90
5059;DHT22;2548;52.050;11.036;2023-07-02T11:56:14;21.80;99.90
5059;DHT22;2548;52.050;11.036;2023-07-02T11:58:42;21.50;99.90
5059;DHT22;2548;52.050;11.036;2023-07-02T12:01:10;21.30;99.90
5059;DHT22;2548;52.050;11.036;2023-07-02T12:03:39;21.10;99.90
5059;DHT22;2548;52.050;11.036;2023-07-02T12:06:06;20.80;99.90
5059;DHT22;2548;52.050;11.036;2023-07-02T12:08:34;20.60;99.90
5059;DHT22;2548;52.050;11.036;2023-07-02T12:11:04;20.50;99.90
5059;DHT22;2548;52.050;11.036;2023-07-02T12:13:32;20.70;99.90
5059;DHT22;2548;52.050;11.036;2023-07-02T12:16:01;21.00;99.90
5059;DHT22;2548;52.050;11.036;2023-07-02T12:18:28;21.30;99.90
5059;DHT22;2548;52.050;11.036;2023-07-02T12:20:58;21.20;99.90
5059;DHT22;2548;52.050;11.036;2023-07-02T12:23:28;21.30;99.90
5059;DHT22;2548;52.050;11.036;2023-07-02T12:25:58;21.50;99.90
5059;DHT22;2548;52.050;11.036;2023-07-02T12:28:28;21.70;99.90
5059;DHT22;2548;52.050;11.036;2023-07-02T12:30:56;21.90;99.90
5059;DHT22;2548;52.050;11.036;2023-07-02T12:33:24;21.80;99.90
5059;DHT22;2548;52.050;11.036;2023-07-02T12:35:51;21.60;99.90
5059;DHT22;2548;52.050;11.036;2023-07-02T12:38:23;21.70;99.90
5059;DHT22;2548;52.050;11.036;2023-07-02T12:40:51;21.80;99.90
5059;DHT22;2548;52.050;11.036;2023-07-02T12:43:18;21.80;99.90
5059;DHT22;2548;52.050;11.036;2023-07-02T12:45:46;21.80;99.90
5059;DHT22;2548;52.050;11.036;2023-07-02T12:48:14;21.70;99.90
5059;DHT22;2548;52.050;11.036;2023-07-02T12:50:53;21.80;99.90
5059;DHT22;2548;52.050;11.036;2023-07-02T12:53:22;22.00;99.90
5059;DHT22;2548;52.050;11.036;2023-07-02T12:55:51;22.00;99.90
5059;DHT22;2548;52.050;11.036;2023-07-02T12:58:18;22.00;99.90
5059;DHT22;2548;52.050;11.036;2023-07-02T13:00:49;21.80;99.90
5059;DHT22;2548;52.050;11.036;2023-07-02T13:03:17;22.10;99.90
5059;DHT22;2548;52.050;11.036;2023-07-02T13:05:56;22.30;99.90
5059;DHT22;2548;52.050;11.036;2023-07-02T13:08:26;22.40;99.90
5059;DHT22;2548;52.050;11.036;2023-07-02T13:10:54;22.60;99.90
5059;DHT22;2548;52.050;11.036;2023-07-02T13:13:21;22.70;99.90
5059;DHT22;2548;52.050;11.036;2023-07-02T13:15:49;22.60;99.90
5059;DHT22;2548;52.050;11.036;2023-07-02T13:18:19;22.30;99.90
5059;DHT22;2548;52.050;11.036;2023-07-02T13:20:53;22.10;99.90
5059;DHT22;2548;52.050;11.036;2023-07-02T13:23:25;21.90;99.90
5059;DHT22;2548;52.050;11.036;2023-07-02T13:25:53;21.80;99.90
5059;DHT22;2548;52.050;11.036;2023-07-02T13:28:21;21.90;99.90
5059;DHT22;2548;52.050;11.036;2023-07-02T13:30:49;22.10;99.90
5059;DHT22;2548;52.050;11.036;2023-07-02T13:33:17;22.30;99.90
5059;DHT22;2548;52.050;11.036;2023-07-02T13:35:45;22.20;99.90
5059;DHT22;2548;52.050;11.036;2023-07-02T13:38:15;21.90;99.90
5059;DHT22;2548;52.050;11.036;2023-07-02T13:40:44;21.70;99.90
5059;DHT22;2548;52.050;11.036;2023-07-02T13:43:21;21.90;99.90
5059;DHT22;2548;52.050;11.036;2023-07-02T13:45:52;22.10;99.90
5059;DHT22;2548;52.050;11.036;2023-07-02T13:48:20;22.30;99.90
5059;DHT22;2548;52.050;11.036;2023-07-02T13:50:47;22.60;99.90
5059;DHT22;2548;52.050;11.036;2023-07-02T13:53:15;22.90;99.90
5059;DHT22;2548;52.050;11.036;2023-07-02T13:55:47;23.10;99.90
5059;DHT22;2548;52.050;11.036;2023-07-02T13:58:14;23.20;99.90
5059;DHT22;2548;52.050;11.036;2023-07-02T14:00:44;23.50;99.90
5059;DHT22;2548;52.050;11.036;2023-07-02T14:03:11;23.40;99.50
5059;DHT22;2548;52.050;11.036;2023-07-02T14:05:42;23.30;99.20
5059;DHT22;2548;52.050;11.036;2023-07-02T14:08:10;23.30;99.90
5059;DHT22;2548;52.050;11.036;2023-07-02T14:10:40;23.40;98.90
5059;DHT22;2548;52.050;11.036;2023-07-02T14:13:08;23.40;98.80
5059;DHT22;2548;52.050;11.036;2023-07-02T14:15:41;23.20;98.70
5059;DHT22;2548;52.050;11.036;2023-07-02T14:18:16;23.10;98.80
5059;DHT22;2548;52.050;11.036;2023-07-02T14:20:44;23.20;99.50
5059;DHT22;2548;52.050;11.036;2023-07-02T14:23:17;23.40;99.10
5059;DHT22;2548;52.050;11.036;2023-07-02T14:25:48;23.40;99.70
5059;DHT22;2548;52.050;11.036;2023-07-02T14:28:15;23.00;99.90
5059;DHT22;2548;52.050;11.036;2023-07-02T14:30:46;22.70;99.90
5059;DHT22;2548;52.050;11.036;2023-07-02T14:33:16;22.50;99.70
5059;DHT22;2548;52.050;11.036;2023-07-02T14:35:46;22.60;99.40
5059;DHT22;2548;52.050;11.036;2023-07-02T14:38:14;22.80;99.90
5059;DHT22;2548;52.050;11.036;2023-07-02T14:40:44;22.90;99.90
5059;DHT22;2548;52.050;11.036;2023-07-02T14:43:15;22.90;99.90
5059;DHT22;2548;52.050;11.036;2023-07-02T14:45:47;22.90;99.90
5059;DHT22;2548;52.050;11.036;2023-07-02T14:48:17;22.70;99.90
5059;DHT22;2548;52.050;11.036;2023-07-02T14:50:48;22.70;99.90
5059;DHT22;2548;52.050;11.036;2023-07-02T14:53:17;22.80;99.90
5059;DHT22;2548;52.050;11.036;2023-07-02T14:55:45;22.90;99.90
5059;DHT22;2548;52.050;11.036;2023-07-02T14:58:14;23.00;99.90
5059;DHT22;2548;52.050;11.036;2023-07-02T15:00:46;23.10;99.90
5059;DHT22;2548;52.050;11.036;2023-07-02T15:03:14;23.10;99.50
5059;DHT22;2548;52.050;11.036;2023-07-02T15:05:46;23.20;99.90
5059;DHT22;2548;52.050;11.036;2023-07-02T15:08:15;23.30;99.90
5059;DHT22;2548;52.050;11.036;2023-07-02T15:10:46;23.20;99.80
5059;DHT22;2548;52.050;11.036;2023-07-02T15:13:15;23.20;99.90
5059;DHT22;2548;52.050;11.036;2023-07-02T15:15:44;23.40;99.70
5059;DHT22;2548;52.050;11.036;2023-07-02T15:18:12;23.30;99.90
5059;DHT22;2548;52.050;11.036;2023-07-02T15:20:44;23.50;99.90
5059;DHT22;2548;52.050;11.036;2023-07-02T15:23:12;23.30;99.40
5059;DHT22;2548;52.050;11.036;2023-07-02T15:25:40;23.40;99.90
5059;DHT22;2548;52.050;11.036;2023-07-02T15:28:14;23.40;99.90
5059;DHT22;2548;52.050;11.036;2023-07-02T15:30:42;23.30;99.90
5059;DHT22;2548;52.050;11.036;2023-07-02T15:33:09;23.10;99.90
5059;DHT22;2548;52.050;11.036;2023-07-02T15:35:37;22.80;99.90
5059;DHT22;2548;52.050;11.036;2023-07-02T15:38:06;22.40;99.90
5059;DHT22;2548;52.050;11.036;2023-07-02T15:40:34;22.50;99.90
5059;DHT22;2548;52.050;11.036;2023-07-02T15:43:02;22.70;99.90
5059;DHT22;2548;52.050;11.036;2023-07-02T15:45:30;22.80;99.90
5059;DHT22;2548;52.050;11.036;2023-07-02T15:47:58;23.10;99.90
5059;DHT22;2548;52.050;11.036;2023-07-02T15:50:25;23.10;99.90
5059;DHT22;2548;52.050;11.036;2023-07-02T15:52:53;22.90;99.90
5059;DHT22;2548;52.050;11.036;2023-07-02T15:55:22;22.90;99.90
5059;DHT22;2548;52.050;11.036;2023-07-02T15:57:50;22.80;99.90
5059;DHT22;2548;52.050;11.036;2023-07-02T16:00:18;22.50;99.90
5059;DHT22;2548;52.050;11.036;2023-07-02T16:02:49;22.60;99.90
5059;DHT22;2548;52.050;11.036;2023-07-02T16:05:19;22.40;99.90
5059;DHT22;2548;52.050;11.036;2023-07-02T16:10:17;22.50;99.90
5059;DHT22;2548;52.050;11.036;2023-07-02T16:12:46;22.30;99.90
5059;DHT22;2548;52.050;11.036;2023-07-02T16:15:15;22.40;99.90